Time;durP1;ratioP1;P1;durP2;ratioP2;P2;SDS_P1;SDS_P2;PMS_P1;PMS_P2;Temp;Humidity;BMP_temperature;BMP_pressure;BME280_temperature;BME280_humidity;BME280_pressure;Samples;Min_cycle;Max_cycle;Signal;HPM_P1;HPM_P2
2023/09/24 00:01:43;;;;;;;2.15;1.65;;;16.80;71.20;;;;;;4994471;28;20057;-81
2023/09/24 00:04:10;;;;;;;2.53;1.90;;;16.80;71.20;;;;;;4977930;28;20037;-81
2023/09/24 00:06:36;;;;;;;1.88;1.50;;;16.80;71.20;;;;;;4994364;28;20038;-81
2023/09/24 00:09:03;;;;;;;1.55;1.45;;;16.80;71.30;;;;;;4978418;28;20034;-82
2023/09/24 00:11:29;;;;;;;1.58;1.40;;;16.80;71.30;;;;;;4978319;28;20042;-82
2023/09/24 00:13:54;;;;;;;2.00;1.55;;;16.70;71.20;;;;;;4993562;28;20027;-82
2023/09/24 00:16:20;;;;;;;2.78;1.60;;;16.80;71.30;;;;;;4979662;28;20124;-81
2023/09/24 00:18:46;;;;;;;1.65;1.52;;;16.70;71.20;;;;;;4979990;28;20030;-81
2023/09/24 00:21:12;;;;;;;1.63;1.48;;;16.70;71.20;;;;;;4998004;28;20037;-81
2023/09/24 00:23:39;;;;;;;1.90;1.30;;;16.70;71.20;;;;;;4999369;28;20047;-81
2023/09/24 00:26:05;;;;;;;2.35;1.73;;;16.70;71.20;;;;;;4987917;28;20030;-81
2023/09/24 00:28:31;;;;;;;2.13;1.58;;;16.60;71.20;;;;;;5001418;28;20034;-81
2023/09/24 00:30:58;;;;;;;1.60;1.45;;;16.60;71.30;;;;;;5015025;28;20030;-81
2023/09/24 00:33:24;;;;;;;2.00;1.60;;;16.60;71.30;;;;;;5012688;28;20463;-81
2023/09/24 00:35:53;;;;;;;2.53;1.63;;;16.60;71.30;;;;;;4978449;28;20356;-82
2023/09/24 00:38:20;;;;;;;1.85;1.60;;;16.50;71.30;;;;;;5011039;28;20026;-83
2023/09/24 00:40:46;;;;;;;1.95;1.73;;;16.50;71.30;;;;;;4978151;28;20026;-81
2023/09/24 00:43:28;;;;;;;2.45;1.70;;;16.50;71.30;;;;;;4993834;28;20172;-81
2023/09/24 00:45:57;;;;;;;1.85;1.67;;;16.50;71.40;;;;;;5009988;28;20030;-81
2023/09/24 00:48:28;;;;;;;2.35;1.73;;;16.40;71.30;;;;;;4977670;28;20030;-80
2023/09/24 00:50:58;;;;;;;2.22;1.48;;;16.40;71.30;;;;;;4993573;28;20038;-81
2023/09/24 00:53:28;;;;;;;2.25;1.70;;;16.40;71.30;;;;;;4993822;28;20061;-82
2023/09/24 00:55:55;;;;;;;1.65;1.40;;;16.40;71.30;;;;;;4977357;28;20022;-82
2023/09/24 00:58:26;;;;;;;2.13;1.83;;;16.30;71.30;;;;;;4993197;28;20128;-81
2023/09/24 01:00:53;;;;;;;1.70;1.55;;;16.30;71.30;;;;;;5009721;28;20031;-82
2023/09/24 01:03:22;;;;;;;2.00;1.60;;;16.30;71.30;;;;;;4993238;28;20048;-81
2023/09/24 01:05:52;;;;;;;2.50;1.70;;;16.30;71.30;;;;;;4994082;28;20035;-83
2023/09/24 01:08:22;;;;;;;2.78;1.80;;;16.30;71.30;;;;;;5009573;28;20026;-80
2023/09/24 01:10:49;;;;;;;1.92;1.60;;;16.20;71.30;;;;;;4994059;28;20068;-80
2023/09/24 01:13:20;;;;;;;2.25;1.83;;;16.30;71.40;;;;;;4993184;28;20038;-81
2023/09/24 01:15:49;;;;;;;1.75;1.65;;;16.20;71.40;;;;;;4993189;28;20081;-81
2023/09/24 01:18:19;;;;;;;2.50;1.98;;;16.20;71.90;;;;;;4961760;28;20117;-81
2023/09/24 01:20:45;;;;;;;1.70;1.50;;;16.20;71.30;;;;;;4993866;28;20403;-81
2023/09/24 01:23:16;;;;;;;2.17;1.60;;;16.20;71.40;;;;;;4976772;28;20084;-81
2023/09/24 01:25:44;;;;;;;2.03;1.63;;;16.10;71.40;;;;;;5009787;28;20399;-81
2023/09/24 01:28:10;;;;;;;2.40;1.90;;;16.10;71.40;;;;;;5009057;28;20034;-80
2023/09/24 01:30:37;;;;;;;1.65;1.55;;;16.10;71.40;;;;;;4994320;28;20034;-82
2023/09/24 01:33:03;;;;;;;2.17;1.63;;;16.10;71.40;;;;;;4992599;28;20491;-81
2023/09/24 01:35:29;;;;;;;2.35;1.80;;;16.10;71.40;;;;;;4977114;28;20545;-82
2023/09/24 01:38:14;;;;;;;2.33;1.58;;;16.00;71.30;;;;;;5009172;28;20027;-81
2023/09/24 01:40:39;;;;;;;2.15;1.60;;;16.00;71.40;;;;;;4993828;28;20037;-81
2023/09/24 01:43:07;;;;;;;3.15;1.98;;;16.00;71.40;;;;;;4961450;28;20046;-81
2023/09/24 01:45:34;;;;;;;2.15;1.77;;;16.00;71.40;;;;;;5009146;28;20038;-81
2023/09/24 01:48:03;;;;;;;2.03;1.80;;;15.90;71.40;;;;;;4992769;28;20030;-81
2023/09/24 01:50:32;;;;;;;2.28;1.83;;;15.90;71.40;;;;;;4992816;28;20360;-81
2023/09/24 01:52:59;;;;;;;2.40;1.92;;;15.90;71.40;;;;;;4992641;28;20031;-82
2023/09/24 01:55:25;;;;;;;2.40;1.85;;;15.90;71.40;;;;;;4993004;28;20393;-81
2023/09/24 01:57:52;;;;;;;2.58;1.70;;;15.90;71.50;;;;;;4976509;28;20065;-81
2023/09/24 02:00:23;;;;;;;2.38;1.83;;;15.80;71.40;;;;;;4992758;28;20046;-82
2023/09/24 02:02:59;;;;;;;2.95;2.05;;;15.80;71.40;;;;;;4994071;28;20045;-80
2023/09/24 02:05:32;;;;;;;2.10;1.67;;;15.80;71.40;;;;;;4992455;28;20030;-81
2023/09/24 02:07:58;;;;;;;3.22;2.03;;;15.80;71.50;;;;;;4992653;28;20533;-82
2023/09/24 02:10:25;;;;;;;2.38;1.77;;;15.80;71.40;;;;;;4976407;28;20125;-81
2023/09/24 02:12:52;;;;;;;1.95;1.65;;;15.80;71.50;;;;;;4976407;28;20483;-82
2023/09/24 02:15:18;;;;;;;2.25;1.88;;;15.70;71.40;;;;;;4976139;28;20491;-82
2023/09/24 02:17:47;;;;;;;2.40;1.95;;;15.70;71.40;;;;;;4993000;28;20074;-82
2023/09/24 02:20:24;;;;;;;2.95;2.00;;;15.70;71.50;;;;;;4992527;28;20510;-81
2023/09/24 02:22:56;;;;;;;2.33;1.98;;;15.60;71.40;;;;;;5009194;28;20502;-83
2023/09/24 02:25:24;;;;;;;3.45;1.98;;;15.60;71.40;;;;;;4976432;28;20109;-82
2023/09/24 02:27:50;;;;;;;3.13;2.13;;;15.60;71.50;;;;;;5008559;28;20026;-81
2023/09/24 02:30:17;;;;;;;2.65;2.13;;;15.60;71.50;;;;;;4992531;28;20065;-81
2023/09/24 02:32:47;;;;;;;2.20;1.75;;;15.60;71.50;;;;;;4992587;28;20038;-82
2023/09/24 02:35:13;;;;;;;2.85;1.77;;;15.60;71.50;;;;;;4992677;28;20109;-82
2023/09/24 02:37:41;;;;;;;2.58;2.00;;;15.60;71.50;;;;;;5011409;28;20038;-82
2023/09/24 02:40:16;;;;;;;3.00;2.00;;;15.50;71.40;;;;;;4996025;28;20022;-83
2023/09/24 02:42:48;;;;;;;2.58;2.08;;;15.50;71.50;;;;;;4997248;28;20039;-83
2023/09/24 02:45:16;;;;;;;2.95;2.00;;;15.50;71.40;;;;;;4996390;28;20120;-82
2023/09/24 02:47:42;;;;;;;1.85;1.67;;;15.50;71.50;;;;;;4964638;28;20026;-82
2023/09/24 02:50:12;;;;;;;5.00;2.03;;;15.40;71.50;;;;;;4981035;28;20026;-82
2023/09/24 02:52:41;;;;;;;2.55;1.95;;;15.40;71.50;;;;;;4996186;28;20101;-81
2023/09/24 02:55:10;;;;;;;2.83;2.10;;;15.40;71.50;;;;;;4997016;28;20040;-82
2023/09/24 02:57:40;;;;;;;4.00;2.35;;;15.40;71.60;;;;;;4983632;28;20058;-81
2023/09/24 03:00:21;;;;;;;1.95;1.75;;;15.30;71.50;;;;;;4999601;28;20032;-82
2023/09/24 03:02:48;;;;;;;3.60;2.05;;;15.30;71.50;;;;;;4999798;28;20084;-82
2023/09/24 03:05:20;;;;;;;2.67;1.98;;;15.40;71.60;;;;;;5015444;28;20478;-82
2023/09/24 03:07:50;;;;;;;3.00;2.05;;;15.30;71.50;;;;;;5015353;28;20112;-82
2023/09/24 03:10:17;;;;;;;2.20;1.83;;;15.30;71.60;;;;;;4998560;28;20032;-82
2023/09/24 03:12:43;;;;;;;2.17;1.90;;;15.30;71.90;;;;;;4998809;28;20481;-82
2023/09/24 03:15:12;;;;;;;2.58;2.03;;;15.20;71.50;;;;;;4982496;28;20038;-82
2023/09/24 03:17:39;;;;;;;2.30;2.03;;;15.20;71.80;;;;;;4998579;28;20221;-82
2023/09/24 03:20:11;;;;;;;2.30;2.05;;;15.30;71.60;;;;;;4998619;28;20049;-82
2023/09/24 03:22:37;;;;;;;3.03;2.20;;;15.20;71.60;;;;;;4998656;28;20042;-82
2023/09/24 03:25:03;;;;;;;2.47;2.05;;;15.20;71.60;;;;;;4999265;28;20103;-82
2023/09/24 03:27:29;;;;;;;3.30;2.30;;;15.20;71.60;;;;;;4998432;28;20038;-82
2023/09/24 03:29:55;;;;;;;3.35;2.40;;;15.10;71.60;;;;;;4999515;28;20037;-82
2023/09/24 03:32:21;;;;;;;3.45;2.20;;;15.10;71.60;;;;;;4982775;28;20037;-83
2023/09/24 03:34:48;;;;;;;2.95;2.33;;;15.10;71.60;;;;;;4966289;28;20367;-82
2023/09/24 03:37:15;;;;;;;3.05;2.30;;;15.10;71.60;;;;;;4950233;28;20041;-83
2023/09/24 03:39:41;;;;;;;3.40;2.30;;;15.10;71.60;;;;;;4981978;28;20038;-82
2023/09/24 03:42:09;;;;;;;3.17;2.15;;;15.00;71.50;;;;;;4982230;28;20096;-82
2023/09/24 03:44:35;;;;;;;2.70;2.10;;;15.00;71.50;;;;;;4998378;28;20034;-81
2023/09/24 03:47:01;;;;;;;3.08;2.28;;;15.00;71.60;;;;;;4998067;28;20038;-82
2023/09/24 03:49:26;;;;;;;3.53;2.05;;;15.00;71.50;;;;;;4996995;28;20038;-82
2023/09/24 03:51:52;;;;;;;2.53;2.00;;;15.00;71.90;;;;;;4981676;28;20034;-81
2023/09/24 03:54:18;;;;;;;3.83;2.10;;;15.00;71.60;;;;;;4981839;28;20034;-82
2023/09/24 03:56:45;;;;;;;3.03;2.10;;;15.00;71.60;;;;;;4982457;28;20034;-82
2023/09/24 03:59:11;;;;;;;3.15;2.30;;;14.90;71.50;;;;;;4965765;28;20052;-82
2023/09/24 04:01:39;;;;;;;3.35;2.47;;;14.90;71.50;;;;;;4997891;28;20030;-83
2023/09/24 04:04:05;;;;;;;3.22;2.50;;;14.90;71.60;;;;;;5013885;28;20073;-81
2023/09/24 04:06:31;;;;;;;2.75;1.95;;;14.90;71.60;;;;;;4981126;28;20125;-82
2023/09/24 04:08:57;;;;;;;3.40;2.05;;;14.90;71.60;;;;;;4997549;28;20168;-82
2023/09/24 04:11:22;;;;;;;3.15;2.33;;;14.90;71.60;;;;;;5014621;28;20033;-82
2023/09/24 04:13:48;;;;;;;2.75;2.13;;;14.80;71.50;;;;;;4981909;28;20041;-82
2023/09/24 04:16:14;;;;;;;2.70;2.20;;;14.80;71.50;;;;;;4997710;28;20030;-82
2023/09/24 04:18:43;;;;;;;3.80;2.47;;;14.80;71.60;;;;;;4997099;28;20029;-81
2023/09/24 04:21:17;;;;;;;3.05;2.30;;;14.80;71.60;;;;;;5013640;28;20061;-82
2023/09/24 04:23:43;;;;;;;2.90;2.10;;;14.80;71.60;;;;;;4997263;28;20120;-81
2023/09/24 04:26:26;;;;;;;3.65;2.22;;;14.80;71.50;;;;;;4981182;28;20115;-81
2023/09/24 04:28:54;;;;;;;2.83;2.05;;;14.70;71.60;;;;;;5013280;28;20026;-81
2023/09/24 04:31:20;;;;;;;3.72;2.35;;;14.70;71.50;;;;;;4997346;28;20030;-82
2023/09/24 04:33:48;;;;;;;3.45;2.30;;;14.70;71.60;;;;;;4997227;28;20030;-81
2023/09/24 04:36:16;;;;;;;3.60;2.50;;;14.70;71.60;;;;;;4997189;28;20026;-81
2023/09/24 04:38:41;;;;;;;2.67;2.15;;;14.70;71.60;;;;;;4997323;28;20529;-82
2023/09/24 04:41:07;;;;;;;2.65;2.13;;;14.60;71.50;;;;;;4996694;28;20030;-81
2023/09/24 04:43:35;;;;;;;3.03;2.08;;;14.60;71.60;;;;;;5014241;28;20370;-81
2023/09/24 04:46:04;;;;;;;2.33;2.00;;;14.60;71.60;;;;;;4981820;28;20070;-82
2023/09/24 04:48:33;;;;;;;2.92;2.28;;;14.60;71.60;;;;;;5001022;28;20022;-82
2023/09/24 04:50:59;;;;;;;3.35;2.10;;;14.60;71.60;;;;;;5020042;28;20105;-81
2023/09/24 04:53:24;;;;;;;3.25;2.40;;;14.50;71.60;;;;;;5005176;28;20072;-81
2023/09/24 04:55:50;;;;;;;2.80;2.13;;;14.50;71.60;;;;;;4971673;28;20426;-81
2023/09/24 04:58:16;;;;;;;3.13;2.40;;;14.50;71.60;;;;;;4968554;28;20414;-81
2023/09/24 05:00:42;;;;;;;3.50;2.38;;;14.50;71.60;;;;;;4999007;28;20387;-82
2023/09/24 05:03:08;;;;;;;2.92;2.35;;;14.50;71.70;;;;;;5014706;28;20465;-82
2023/09/24 05:05:34;;;;;;;2.70;2.20;;;14.50;71.70;;;;;;4996899;28;20034;-80
2023/09/24 05:08:02;;;;;;;2.97;2.10;;;14.50;71.70;;;;;;4980905;28;20509;-81
2023/09/24 05:10:28;;;;;;;2.88;2.22;;;14.50;71.70;;;;;;5013275;28;20057;-83
2023/09/24 05:12:54;;;;;;;3.60;2.42;;;14.40;71.60;;;;;;5013346;28;20034;-81
2023/09/24 05:15:20;;;;;;;3.17;2.30;;;14.40;71.60;;;;;;4996527;28;20080;-81
2023/09/24 05:17:46;;;;;;;3.80;2.50;;;14.40;71.60;;;;;;4979869;28;20080;-81
2023/09/24 05:20:15;;;;;;;3.13;2.30;;;14.40;71.60;;;;;;4980232;28;20125;-82
2023/09/24 05:22:41;;;;;;;2.97;2.20;;;14.40;71.60;;;;;;4981285;28;20037;-81
2023/09/24 05:25:08;;;;;;;2.65;2.13;;;14.40;71.60;;;;;;4996574;28;20391;-81
2023/09/24 05:27:34;;;;;;;2.92;2.15;;;14.40;71.70;;;;;;5012368;28;20060;-82
2023/09/24 05:30:00;;;;;;;2.38;2.03;;;14.30;71.60;;;;;;4996233;28;20045;-81
2023/09/24 05:32:26;;;;;;;3.83;2.35;;;14.30;71.60;;;;;;4964655;28;20038;-80
2023/09/24 05:34:52;;;;;;;3.15;2.60;;;14.30;71.70;;;;;;4980750;28;20363;-81
2023/09/24 05:37:18;;;;;;;3.05;2.28;;;14.30;71.60;;;;;;5012724;28;20092;-85
2023/09/24 05:39:44;;;;;;;2.95;2.45;;;14.30;71.60;;;;;;4997032;28;20429;-85
2023/09/24 05:42:10;;;;;;;3.38;2.40;;;14.20;71.60;;;;;;5014353;28;20486;-82
2023/09/24 05:44:35;;;;;;;3.38;2.50;;;14.20;71.60;;;;;;4996262;28;20034;-82
2023/09/24 05:47:01;;;;;;;3.35;2.60;;;14.20;71.60;;;;;;4996105;28;20125;-81
2023/09/24 05:49:27;;;;;;;3.33;2.55;;;14.20;71.60;;;;;;4996065;28;20360;-85
2023/09/24 05:51:53;;;;;;;3.00;2.45;;;14.20;71.60;;;;;;4979725;28;20034;-82
2023/09/24 05:54:18;;;;;;;4.20;2.80;;;14.20;71.60;;;;;;5012670;28;20034;-82
2023/09/24 05:56:44;;;;;;;3.83;2.75;;;14.10;71.60;;;;;;4996092;28;20034;-84
2023/09/24 05:59:10;;;;;;;3.65;2.45;;;14.10;71.50;;;;;;4996258;28;20082;-81
2023/09/24 06:01:36;;;;;;;4.07;2.42;;;14.20;71.60;;;;;;4979940;28;20465;-84
2023/09/24 06:04:01;;;;;;;4.35;2.65;;;14.10;71.60;;;;;;4996060;28;20034;-82
2023/09/24 06:06:27;;;;;;;3.53;2.50;;;14.10;71.60;;;;;;5012711;28;20046;-83
2023/09/24 06:08:53;;;;;;;3.58;2.42;;;14.10;71.60;;;;;;4996569;28;20038;-83
2023/09/24 06:11:19;;;;;;;3.15;2.50;;;14.10;71.60;;;;;;4998961;28;20449;-82
2023/09/24 06:13:45;;;;;;;2.58;2.28;;;14.00;71.60;;;;;;5003216;28;20482;-82
2023/09/24 06:16:10;;;;;;;3.75;2.60;;;14.00;71.60;;;;;;5003239;28;20057;-81
2023/09/24 06:18:36;;;;;;;4.20;2.75;;;14.00;71.60;;;;;;4986809;28;20042;-82
2023/09/24 06:21:05;;;;;;;3.65;2.45;;;14.00;71.70;;;;;;4986200;28;20067;-81
2023/09/24 06:23:31;;;;;;;3.67;2.58;;;14.00;71.70;;;;;;5001694;28;20033;-83
2023/09/24 06:26:00;;;;;;;3.50;2.58;;;14.00;71.70;;;;;;5000935;28;20141;-80
2023/09/24 06:28:27;;;;;;;4.22;2.85;;;14.00;71.70;;;;;;5018852;28;20033;-81
2023/09/24 06:31:00;;;;;;;3.65;2.53;;;14.00;71.80;;;;;;5016964;28;20022;-81
2023/09/24 06:33:26;;;;;;;4.03;2.90;;;14.00;71.80;;;;;;4983909;28;20037;-82
2023/09/24 06:35:52;;;;;;;3.38;2.53;;;14.00;71.80;;;;;;5015912;28;20033;-84
2023/09/24 06:38:21;;;;;;;3.20;2.50;;;13.90;71.70;;;;;;5016781;28;20032;-82
2023/09/24 06:40:55;;;;;;;3.58;2.40;;;13.90;71.70;;;;;;5000141;28;20358;-83
2023/09/24 06:43:21;;;;;;;3.08;2.60;;;14.00;71.80;;;;;;5015581;28;20034;-83
2023/09/24 06:45:47;;;;;;;3.17;2.50;;;14.00;71.70;;;;;;4999694;28;20053;-82
2023/09/24 06:48:12;;;;;;;4.00;2.95;;;13.90;71.80;;;;;;4999368;28;20474;-82
2023/09/24 06:50:38;;;;;;;3.70;2.70;;;13.90;71.80;;;;;;4982844;28;20474;-86
2023/09/24 06:53:04;;;;;;;4.15;2.97;;;13.90;71.80;;;;;;4983087;28;20132;-85
2023/09/24 06:55:30;;;;;;;3.97;2.60;;;14.00;71.90;;;;;;4983024;28;20030;-83
2023/09/24 06:57:56;;;;;;;4.40;2.55;;;14.00;71.90;;;;;;4999528;28;20064;-83
2023/09/24 07:00:22;;;;;;;3.08;2.60;;;13.90;71.80;;;;;;4983329;28;20045;-81
2023/09/24 07:02:48;;;;;;;3.15;2.53;;;13.90;71.80;;;;;;4999236;28;20355;-84
2023/09/24 07:05:14;;;;;;;2.83;2.53;;;14.00;71.90;;;;;;5015370;28;20038;-84
2023/09/24 07:07:40;;;;;;;4.25;2.72;;;14.00;71.90;;;;;;5015283;28;20168;-82
2023/09/24 07:10:06;;;;;;;3.33;2.63;;;14.00;71.90;;;;;;5016899;28;20037;-84
2023/09/24 07:12:32;;;;;;;3.67;2.72;;;14.00;71.90;;;;;;5015278;28;20029;-83
2023/09/24 07:14:58;;;;;;;3.60;2.83;;;14.00;71.90;;;;;;4999098;28;20542;-82
2023/09/24 07:17:24;;;;;;;3.53;2.45;;;14.00;71.90;;;;;;4950270;28;20475;-85
2023/09/24 07:19:52;;;;;;;3.25;2.53;;;14.00;71.90;;;;;;5015424;28;20026;-85
2023/09/24 07:22:24;;;;;;;3.13;2.30;;;14.00;71.90;;;;;;4999263;28;20044;-85
2023/09/24 07:24:50;;;;;;;3.15;2.53;;;14.10;72.00;;;;;;5016194;28;20037;-85
2023/09/24 07:27:16;;;;;;;3.38;2.58;;;14.00;72.00;;;;;;5015167;28;20398;-84
2023/09/24 07:29:43;;;;;;;3.35;2.55;;;14.10;72.00;;;;;;4982733;28;20049;-84
2023/09/24 07:32:16;;;;;;;3.28;2.40;;;14.10;72.00;;;;;;5015224;28;20104;-86
2023/09/24 07:34:46;;;;;;;3.97;2.80;;;14.10;72.10;;;;;;4999205;28;20033;-81
2023/09/24 07:37:13;;;;;;;3.58;2.53;;;14.10;72.00;;;;;;4982392;28;20033;-82
2023/09/24 07:39:39;;;;;;;3.58;2.33;;;14.10;72.00;;;;;;4998893;28;20141;-79
2023/09/24 07:42:06;;;;;;;3.30;2.60;;;14.10;72.00;;;;;;4998440;28;20470;-83
2023/09/24 07:44:32;;;;;;;2.55;2.28;;;14.10;72.00;;;;;;4998315;28;20112;-85
2023/09/24 07:46:59;;;;;;;2.70;2.38;;;14.20;72.10;;;;;;4982773;28;20083;-80
2023/09/24 07:49:25;;;;;;;3.53;2.60;;;14.20;72.10;;;;;;4998224;28;20026;-82
2023/09/24 07:51:50;;;;;;;2.70;2.35;;;14.20;72.10;;;;;;4998282;28;20501;-86
2023/09/24 07:54:17;;;;;;;3.33;2.38;;;14.20;72.10;;;;;;4998513;28;20119;-83
2023/09/24 07:56:43;;;;;;;2.92;2.38;;;14.20;72.10;;;;;;5014169;28;20061;-83
2023/09/24 07:59:12;;;;;;;2.35;2.05;;;14.20;72.10;;;;;;4998041;28;20145;-83
2023/09/24 08:01:38;;;;;;;2.85;2.38;;;14.20;72.10;;;;;;4982537;28;20036;-83
2023/09/24 08:04:05;;;;;;;2.97;2.38;;;14.20;72.10;;;;;;5014138;28;20501;-81
2023/09/24 08:06:30;;;;;;;2.70;2.25;;;14.30;72.10;;;;;;4997891;28;20053;-84
2023/09/24 08:08:56;;;;;;;2.53;2.10;;;14.20;72.10;;;;;;4997572;28;20450;-82
2023/09/24 08:11:23;;;;;;;4.15;2.60;;;14.30;72.10;;;;;;4997661;28;20034;-82
2023/09/24 08:13:49;;;;;;;2.75;2.10;;;14.30;72.10;;;;;;4982075;28;20543;-82
2023/09/24 08:16:15;;;;;;;3.15;2.30;;;14.30;72.10;;;;;;4981365;28;20140;-82
2023/09/24 08:18:40;;;;;;;2.55;2.00;;;14.30;72.10;;;;;;4998124;28;20049;-84
2023/09/24 08:21:07;;;;;;;2.80;2.22;;;14.30;72.10;;;;;;4997283;28;20466;-84
2023/09/24 08:23:33;;;;;;;2.28;1.90;;;14.30;72.10;;;;;;4997490;28;20075;-85
2023/09/24 08:26:02;;;;;;;2.90;2.15;;;14.40;72.10;;;;;;5014579;28;20430;-83
2023/09/24 08:28:28;;;;;;;2.03;1.80;;;14.40;72.10;;;;;;4982060;28;20061;-84
2023/09/24 08:30:54;;;;;;;2.45;1.88;;;14.40;72.10;;;;;;4997570;28;20068;-83
2023/09/24 08:33:20;;;;;;;2.92;2.00;;;14.40;72.20;;;;;;4997477;28;20040;-81
2023/09/24 08:35:46;;;;;;;2.63;2.13;;;14.40;72.10;;;;;;4996602;28;20112;-82
2023/09/24 08:38:13;;;;;;;2.35;2.00;;;14.50;72.20;;;;;;4997257;28;20112;-81
2023/09/24 08:40:40;;;;;;;2.38;1.90;;;14.50;72.20;;;;;;5013530;28;20542;-83
2023/09/24 08:43:14;;;;;;;2.17;1.85;;;14.50;72.20;;;;;;4997005;28;20041;-83
2023/09/24 08:45:41;;;;;;;2.28;1.83;;;14.50;72.20;;;;;;5013499;28;20095;-83
2023/09/24 08:48:09;;;;;;;2.90;2.00;;;14.60;72.20;;;;;;5014163;28;20485;-82
2023/09/24 08:50:38;;;;;;;1.85;1.67;;;14.60;72.20;;;;;;5014436;28;20467;-84
2023/09/24 08:53:12;;;;;;;2.45;1.80;;;14.60;72.30;;;;;;4996899;28;20026;-83
2023/09/24 08:55:45;;;;;;;1.80;1.60;;;14.70;72.30;;;;;;5013446;28;20021;-84
2023/09/24 08:58:13;;;;;;;3.08;1.80;;;14.70;72.30;;;;;;4977646;28;20506;-83
2023/09/24 09:00:42;;;;;;;1.63;1.50;;;14.80;72.20;;;;;;5009563;28;20034;-83
2023/09/24 09:03:07;;;;;;;2.15;1.65;;;14.80;72.20;;;;;;4993584;28;20037;-85
2023/09/24 09:05:37;;;;;;;1.60;1.50;;;14.90;72.20;;;;;;4994606;28;20026;-83
2023/09/24 09:08:04;;;;;;;1.73;1.55;;;14.90;72.20;;;;;;4993735;28;20030;-84
2023/09/24 09:10:32;;;;;;;1.95;1.60;;;15.00;72.20;;;;;;5010125;28;20463;-85
2023/09/24 09:13:07;;;;;;;2.95;1.80;;;15.10;72.20;;;;;;4993834;28;20042;-84
2023/09/24 09:15:33;;;;;;;;;;;15.10;72.10;;;;;;4994711;28;20030;-84
2023/09/24 09:18:00;;;;;;;2.13;1.60;;;15.20;71.70;;;;;;4978754;28;19914;-84
2023/09/24 09:20:40;;;;;;;2.05;1.55;;;15.30;71.60;;;;;;5011380;28;20030;-84
2023/09/24 09:23:12;;;;;;;1.50;1.33;;;15.30;71.70;;;;;;5015922;28;20054;-80
2023/09/24 09:25:49;;;;;;;1.75;1.40;;;15.40;71.50;;;;;;5006370;28;20034;-85
2023/09/24 09:28:32;;;;;;;1.85;1.38;;;15.50;72.20;;;;;;5006402;28;20030;-82
2023/09/24 09:31:01;;;;;;;1.90;1.50;;;15.50;71.50;;;;;;4985373;28;20030;-83
2023/09/24 09:33:29;;;;;;;1.80;1.40;;;15.60;71.30;;;;;;5015698;28;20085;-84
2023/09/24 09:35:56;;;;;;;1.60;1.50;;;15.70;71.20;;;;;;5011232;28;20117;-84
2023/09/24 09:38:22;;;;;;;1.75;1.40;;;15.80;71.20;;;;;;5010207;28;20031;-83
2023/09/24 09:40:54;;;;;;;1.92;1.35;;;15.90;71.10;;;;;;4977377;28;20482;-84
2023/09/24 09:43:22;;;;;;;1.65;1.38;;;16.00;71.10;;;;;;4993923;28;20034;-82
2023/09/24 09:45:50;;;;;;;3.53;1.60;;;16.10;71.10;;;;;;5010970;28;20061;-89
2023/09/24 09:48:22;;;;;;;2.92;1.80;;;16.10;71.20;;;;;;4998137;28;20041;-81
2023/09/24 09:50:50;;;;;;;2.42;1.75;;;16.20;71.40;;;;;;4998938;28;20109;-80
2023/09/24 09:53:19;;;;;;;3.92;1.90;;;16.40;71.50;;;;;;4981553;28;20031;-80
2023/09/24 09:55:46;;;;;;;3.35;1.75;;;16.50;71.50;;;;;;4998207;28;20022;-80
2023/09/24 09:58:14;;;;;;;3.47;2.08;;;16.60;71.50;;;;;;4965830;28;20065;-80
2023/09/24 10:00:40;;;;;;;3.38;2.10;;;16.70;71.50;;;;;;4997068;28;20069;-83
2023/09/24 10:03:07;;;;;;;4.18;1.85;;;16.90;71.60;;;;;;4997015;28;20034;-81
2023/09/24 10:05:33;;;;;;;2.63;1.67;;;17.00;71.50;;;;;;4996979;28;20034;-81
2023/09/24 10:08:20;;;;;;;2.58;1.70;;;17.10;71.40;;;;;;4997512;28;20035;-81
2023/09/24 10:10:46;;;;;;;1.75;1.50;;;17.20;71.40;;;;;;5012341;28;20073;-82
2023/09/24 10:13:43;;;;;;;3.95;2.00;;;17.30;71.30;;;;;;4996376;28;20034;-85
2023/09/24 10:16:35;;;;;;;2.67;1.95;;;17.40;71.40;;;;;;4996830;28;20431;-82
2023/09/24 10:19:12;;;;;;;2.08;1.60;;;17.50;71.30;;;;;;5012779;28;20077;-82
2023/09/24 10:21:38;;;;;;;2.20;1.63;;;17.60;71.30;;;;;;5012819;28;20030;-79
2023/09/24 10:24:10;;;;;;;4.25;1.95;;;17.60;71.20;;;;;;5013732;28;20374;-84
2023/09/24 10:26:54;;;;;;;2.45;1.55;;;17.70;71.30;;;;;;5014173;28;20034;-84
2023/09/24 10:29:46;;;;;;;1.73;1.48;;;17.80;71.40;;;;;;5012826;28;20073;-84
2023/09/24 10:32:17;;;;;;;1.63;1.35;;;17.90;71.40;;;;;;4997556;28;20447;-84
2023/09/24 10:34:51;;;;;;;5.13;1.70;;;18.00;71.20;;;;;;4998035;28;20030;-82
2023/09/24 10:37:20;;;;;;;1.83;1.30;;;18.10;71.20;;;;;;4996244;28;20455;-81
2023/09/24 10:40:19;;;;;;;2.55;1.52;;;18.20;71.20;;;;;;4996376;28;20034;-77
2023/09/24 10:43:04;;;;;;;2.72;1.85;;;18.20;71.40;;;;;;4995766;28;20038;-85
2023/09/24 10:45:30;;;;;;;2.45;1.20;;;18.30;71.20;;;;;;4979804;28;20027;-84
2023/09/24 10:48:02;;;;;;;1.88;1.25;;;18.40;71.40;;;;;;4996330;28;20034;-85
2023/09/24 10:50:28;;;;;;;2.10;1.20;;;18.50;71.60;;;;;;4996912;28;20468;-85
2023/09/24 10:53:03;;;;;;;1.70;1.20;;;18.50;71.60;;;;;;4996632;28;20044;-85
2023/09/24 10:55:36;;;;;;;2.28;1.40;;;18.50;71.80;;;;;;4996243;28;20030;-86
2023/09/24 10:58:20;;;;;;;1.83;1.33;;;18.60;71.90;;;;;;4998526;28;20464;-87
2023/09/24 11:00:51;;;;;;;1.27;1.10;;;18.70;72.20;;;;;;5016256;28;20477;-84
2023/09/24 11:03:16;;;;;;;2.28;1.50;;;18.70;72.20;;;;;;4999371;28;20038;-85
2023/09/24 11:05:49;;;;;;;2.10;1.33;;;18.80;72.20;;;;;;4967677;28;20060;-85
2023/09/24 11:08:19;;;;;;;1.98;1.30;;;18.80;72.40;;;;;;4982870;28;20041;-85
2023/09/24 11:10:49;;;;;;;1.42;1.10;;;18.80;72.50;;;;;;4999295;28;20053;-85
2023/09/24 11:13:16;;;;;;;1.67;1.10;;;18.80;72.60;;;;;;5016526;28;20131;-84
2023/09/24 11:15:42;;;;;;;1.70;1.05;;;18.80;72.70;;;;;;4999003;28;20105;-84
2023/09/24 11:18:11;;;;;;;1.63;1.20;;;18.90;72.90;;;;;;4982992;28;20038;-84
2023/09/24 11:20:37;;;;;;;1.02;0.93;;;18.90;73.00;;;;;;4998830;28;20029;-84
2023/09/24 11:23:09;;;;;;;2.15;1.13;;;18.90;73.00;;;;;;4998945;28;20438;-84
2023/09/24 11:25:35;;;;;;;2.05;0.90;;;19.00;73.20;;;;;;4983425;28;20121;-84
2023/09/24 11:28:05;;;;;;;1.35;1.10;;;19.00;73.20;;;;;;5015217;28;20362;-85
2023/09/24 11:30:50;;;;;;;1.10;1.00;;;19.00;73.30;;;;;;5016053;28;20076;-86
2023/09/24 11:33:20;;;;;;;0.95;0.90;;;19.00;73.50;;;;;;4998725;28;20029;-84
2023/09/24 11:35:47;;;;;;;1.45;1.25;;;19.10;73.40;;;;;;4999666;28;20084;-84
2023/09/24 11:38:29;;;;;;;1.48;1.00;;;19.10;73.40;;;;;;4998637;28;20033;-82
2023/09/24 11:41:37;;;;;;;1.55;1.15;;;19.10;73.60;;;;;;4998670;28;20033;-85
2023/09/24 11:44:47;;;;;;;1.67;1.15;;;19.10;73.60;;;;;;4920626;29;20040;-83
2023/09/24 11:47:16;;;;;;;1.38;0.90;;;19.10;73.60;;;;;;4924896;28;20045;-84
2023/09/24 11:49:42;;;;;;;1.15;1.00;;;19.20;73.40;;;;;;5014534;28;20120;-83
2023/09/24 11:52:13;;;;;;;1.38;1.10;;;19.20;73.40;;;;;;4998593;28;20494;-84
2023/09/24 11:54:40;;;;;;;1.88;0.98;;;19.20;73.50;;;;;;4966597;28;20034;-84
2023/09/24 11:57:21;;;;;;;2.20;1.00;;;19.20;73.40;;;;;;4981034;28;20042;-83
2023/09/24 11:59:47;;;;;;;1.67;1.00;;;19.20;73.50;;;;;;5013813;28;20046;-84
2023/09/24 12:02:13;;;;;;;1.48;1.08;;;19.20;73.30;;;;;;4965609;28;20471;-84
2023/09/24 12:04:39;;;;;;;1.70;1.10;;;19.30;73.40;;;;;;4965176;28;20092;-83
2023/09/24 12:07:05;;;;;;;2.10;1.17;;;19.30;73.30;;;;;;4981722;28;20041;-84
2023/09/24 12:09:31;;;;;;;0.90;0.90;;;19.30;73.30;;;;;;4996843;28;20422;-84
2023/09/24 12:11:57;;;;;;;0.88;0.85;;;19.30;73.30;;;;;;4965300;28;20058;-82
2023/09/24 12:14:22;;;;;;;1.02;0.95;;;19.40;73.30;;;;;;4998750;28;20442;-86
2023/09/24 12:16:48;;;;;;;1.80;1.00;;;19.40;73.20;;;;;;4981963;28;20033;-88
2023/09/24 12:19:20;;;;;;;1.60;1.15;;;19.50;73.20;;;;;;4998587;28;20482;-83
2023/09/24 12:21:46;;;;;;;1.60;1.10;;;19.40;73.10;;;;;;4964416;28;20139;-83
2023/09/24 12:24:12;;;;;;;1.10;1.00;;;19.50;73.10;;;;;;4981061;28;20033;-85
2023/09/24 12:26:37;;;;;;;0.98;0.90;;;19.50;72.90;;;;;;4997319;28;20033;-83
2023/09/24 12:29:03;;;;;;;1.38;1.00;;;19.50;72.90;;;;;;4997385;28;20029;-90
2023/09/24 12:31:29;;;;;;;1.00;0.90;;;19.50;72.80;;;;;;4981447;28;20152;-83
2023/09/24 12:33:55;;;;;;;1.70;1.10;;;19.60;72.80;;;;;;4997627;28;20046;-83
2023/09/24 12:36:21;;;;;;;1.48;1.08;;;19.60;72.80;;;;;;4982485;28;20121;-84
2023/09/24 12:38:46;;;;;;;1.73;1.08;;;19.70;72.80;;;;;;4997974;28;20030;-86
2023/09/24 12:41:12;;;;;;;1.77;1.20;;;19.70;72.80;;;;;;4997200;28;20038;-84
2023/09/24 12:43:38;;;;;;;1.50;1.00;;;19.70;72.80;;;;;;4965190;28;20419;-84
2023/09/24 12:46:08;;;;;;;1.15;1.08;;;19.80;72.80;;;;;;4981681;28;20045;-87
2023/09/24 12:48:35;;;;;;;1.40;0.98;;;19.80;72.80;;;;;;4997779;28;20034;-86
2023/09/24 12:51:01;;;;;;;1.48;1.08;;;19.80;72.80;;;;;;4981583;28;20042;-85
2023/09/24 12:53:27;;;;;;;1.52;1.27;;;19.80;72.80;;;;;;4981000;28;20038;-83
2023/09/24 12:55:53;;;;;;;1.33;1.08;;;19.90;72.80;;;;;;4997024;28;20087;-83